createdAt,value
2018-04-19T00:02:11.707Z,31.10
2018-04-19T00:04:37.950Z,25.73
2018-04-19T00:07:05.154Z,25.80
2018-04-19T00:09:32.146Z,23.37
2018-04-19T00:11:58.469Z,25.03
2018-04-19T00:14:24.709Z,24.07
2018-04-19T00:16:50.936Z,25.00
2018-04-19T00:19:17.129Z,22.43
2018-04-19T00:21:43.359Z,24.53
2018-04-19T00:24:09.615Z,21.50
2018-04-19T00:26:35.919Z,19.70
2018-04-19T00:29:02.146Z,21.73
2018-04-19T00:31:28.381Z,24.43
2018-04-19T00:33:54.571Z,23.50
2018-04-19T00:36:20.791Z,22.57
2018-04-19T00:38:47.023Z,23.07
2018-04-19T00:41:13.288Z,26.63
2018-04-19T00:43:39.500Z,25.17
2018-04-19T00:46:05.738Z,27.27
2018-04-19T00:48:31.926Z,23.63
2018-04-19T00:50:58.130Z,23.73
2018-04-19T00:53:24.328Z,22.13
2018-04-19T00:55:50.539Z,27.53
2018-04-19T00:58:16.738Z,20.70
2018-04-19T01:00:43.767Z,26.47
2018-04-19T01:03:10.004Z,24.20
2018-04-19T01:05:36.955Z,24.17
2018-04-19T01:08:03.136Z,24.80
2018-04-19T01:10:30.094Z,24.50
2018-04-19T01:12:56.328Z,27.83
2018-04-19T01:15:22.564Z,26.47
2018-04-19T01:17:48.742Z,25.80
2018-04-19T01:20:15.760Z,23.10
2018-04-19T01:22:42.037Z,24.83
2018-04-19T01:25:08.276Z,27.40
2018-04-19T01:27:34.480Z,23.00
2018-04-19T01:30:01.405Z,23.27
2018-04-19T01:32:27.595Z,22.73
2018-04-19T01:34:53.832Z,24.27
2018-04-19T01:37:20.072Z,25.47
2018-04-19T01:39:46.318Z,22.87
2018-04-19T01:42:12.536Z,24.30
2018-04-19T01:44:39.475Z,26.60
2018-04-19T01:47:07.156Z,26.83
2018-04-19T01:49:33.354Z,25.87
2018-04-19T01:51:59.674Z,23.27
2018-04-19T01:54:26.579Z,26.07
2018-04-19T01:56:52.894Z,22.53
2018-04-19T01:59:19.197Z,24.63
2018-04-19T02:01:45.446Z,23.73
2018-04-19T02:04:11.669Z,25.37
2018-04-19T02:06:38.594Z,22.67
2018-04-19T02:09:04.879Z,24.90
2018-04-19T02:11:31.102Z,23.70
2018-04-19T02:13:58.076Z,23.63
2018-04-19T02:16:25.003Z,24.60
2018-04-19T02:18:51.329Z,21.73
2018-04-19T02:21:18.326Z,24.10
2018-04-19T02:23:44.556Z,20.80
2018-04-19T02:26:10.794Z,22.37
2018-04-19T02:28:37.756Z,23.47
2018-04-19T02:31:03.934Z,24.53
2018-04-19T02:33:30.219Z,25.27
2018-04-19T02:35:57.910Z,23.57
2018-04-19T02:38:24.094Z,24.33
2018-04-19T02:40:50.267Z,23.10
2018-04-19T02:43:16.462Z,22.63
2018-04-19T02:45:42.717Z,23.17
2018-04-19T02:48:08.915Z,24.30
2018-04-19T02:50:35.932Z,21.93
2018-04-19T02:53:02.786Z,22.17
2018-04-19T02:55:28.966Z,23.50
2018-04-19T02:57:55.147Z,21.07
2018-04-19T03:00:21.367Z,23.20
2018-04-19T03:02:47.575Z,25.07
2018-04-19T03:05:14.546Z,22.70
2018-04-19T03:07:41.561Z,24.03
2018-04-19T03:10:07.737Z,23.13
2018-04-19T03:12:34.686Z,20.87
2018-04-19T03:15:01.637Z,24.53
2018-04-19T03:17:27.817Z,22.57
2018-04-19T03:19:54.020Z,21.70
2018-04-19T03:22:20.235Z,22.03
2018-04-19T03:24:46.415Z,19.83
2018-04-19T03:27:14.147Z,25.17
2018-04-19T03:29:40.460Z,23.83
2018-04-19T03:32:06.675Z,22.00
2018-04-19T03:34:33.778Z,21.03
2018-04-19T03:37:00.003Z,17.97
2018-04-19T03:39:26.254Z,20.07
2018-04-19T03:41:52.454Z,24.17
2018-04-19T03:44:18.628Z,22.47
2018-04-19T03:46:44.843Z,18.40
2018-04-19T03:49:11.107Z,20.57
2018-04-19T03:51:37.312Z,23.93
2018-04-19T03:54:04.270Z,19.93
2018-04-19T03:56:31.230Z,19.73
2018-04-19T03:58:58.176Z,16.93
2018-04-19T04:01:25.842Z,20.57
2018-04-19T04:03:52.782Z,21.10
2018-04-19T04:06:18.987Z,23.17
2018-04-19T04:08:45.182Z,21.87
2018-04-19T04:11:12.194Z,22.03
2018-04-19T04:13:38.413Z,22.27
2018-04-19T04:16:04.611Z,20.23
2018-04-19T04:18:43.623Z,22.90
2018-04-19T04:21:16.786Z,20.57
2018-04-19T04:23:51.090Z,24.77
2018-04-19T04:26:17.354Z,20.67
2018-04-19T04:28:44.343Z,22.53
2018-04-19T04:31:10.700Z,18.90
2018-04-19T04:33:36.833Z,20.87
2018-04-19T04:36:03.043Z,23.40
2018-04-19T04:38:29.269Z,17.97
2018-04-19T04:40:55.442Z,19.23
2018-04-19T04:43:21.647Z,21.17
2018-04-19T04:45:48.580Z,17.40
2018-04-19T04:48:15.597Z,22.57
2018-04-19T04:50:41.895Z,20.47
2018-04-19T04:53:08.855Z,20.57
2018-04-19T04:55:35.815Z,21.40
2018-04-19T04:58:02.811Z,21.57
2018-04-19T05:00:28.991Z,21.47
2018-04-19T05:02:55.161Z,19.37
2018-04-19T05:05:21.364Z,19.87
2018-04-19T05:07:47.599Z,20.17
2018-04-19T05:10:13.840Z,19.10
2018-04-19T05:12:40.025Z,21.63
2018-04-19T05:15:06.243Z,22.00
2018-04-19T05:17:32.434Z,20.63
2018-04-19T05:19:58.624Z,20.27
2018-04-19T05:22:26.299Z,23.53
2018-04-19T05:24:53.248Z,20.67
2018-04-19T05:27:19.435Z,20.50
2018-04-19T05:29:45.634Z,19.87
2018-04-19T05:32:11.828Z,21.80
2018-04-19T05:34:38.006Z,20.43
2018-04-19T05:37:04.198Z,18.77
2018-04-19T05:39:30.374Z,20.07
2018-04-19T05:41:56.572Z,21.03
2018-04-19T05:44:22.771Z,21.47
2018-04-19T05:46:49.727Z,25.37
2018-04-19T05:49:15.940Z,19.63
2018-04-19T05:51:42.207Z,19.73
2018-04-19T05:54:09.223Z,21.83
2018-04-19T05:56:35.474Z,21.97
2018-04-19T05:59:01.683Z,23.03
2018-04-19T06:01:27.874Z,20.83
2018-04-19T06:03:55.532Z,23.07
2018-04-19T06:06:21.746Z,22.17
2018-04-19T06:08:48.438Z,23.40
2018-04-19T06:11:14.695Z,19.77
2018-04-19T06:13:41.677Z,21.13
2018-04-19T06:16:07.913Z,19.37
2018-04-19T06:18:34.090Z,18.83
2018-04-19T06:21:00.350Z,20.83
2018-04-19T06:23:26.569Z,17.90
2018-04-19T06:25:52.764Z,17.70
2018-04-19T06:28:18.961Z,19.13
2018-04-19T06:30:45.206Z,19.20
2018-04-19T06:33:11.496Z,16.60
2018-04-19T06:35:37.788Z,18.80
2018-04-19T06:38:05.463Z,17.07
2018-04-19T06:40:31.649Z,16.30
2018-04-19T06:42:57.874Z,17.10
2018-04-19T06:45:24.834Z,16.63
2018-04-19T06:47:51.774Z,17.80
2018-04-19T06:50:18.007Z,15.13
2018-04-19T06:52:44.345Z,15.27
2018-04-19T06:55:10.620Z,14.43
2018-04-19T06:57:36.846Z,15.00
2018-04-19T07:00:03.087Z,15.93
2018-04-19T07:02:30.046Z,14.67
2018-04-19T07:04:56.253Z,16.20
2018-04-19T07:07:22.457Z,16.17
2018-04-19T07:09:48.616Z,14.83
2018-04-19T07:12:14.914Z,13.53
2018-04-19T07:14:41.246Z,13.23
2018-04-19T07:17:08.897Z,11.10
2018-04-19T07:19:35.132Z,9.70
2018-04-19T07:22:01.373Z,10.13
2018-04-19T07:24:27.646Z,11.30
2018-04-19T07:26:54.590Z,8.90
2018-04-19T07:29:20.766Z,7.73
2018-04-19T07:31:47.012Z,10.67
2018-04-19T07:34:13.280Z,12.60
2018-04-19T07:36:39.519Z,15.43
2018-04-19T07:39:05.753Z,10.70
2018-04-19T07:41:31.978Z,9.00
2018-04-19T07:43:58.162Z,10.93
2018-04-19T07:46:24.363Z,10.93
2018-04-19T07:48:50.616Z,10.33
2018-04-19T07:51:16.814Z,10.70
2018-04-19T07:53:43.068Z,9.60
2018-04-19T07:56:09.330Z,10.47
2018-04-19T07:58:35.555Z,11.20
2018-04-19T08:01:01.759Z,10.47
2018-04-19T08:03:28.732Z,9.53
2018-04-19T08:05:55.685Z,9.67
2018-04-19T08:08:22.658Z,10.20
2018-04-19T08:10:48.923Z,9.87
2018-04-19T08:13:15.162Z,10.90
2018-04-19T08:15:41.392Z,11.30
2018-04-19T08:18:07.619Z,9.40
2018-04-19T08:20:34.570Z,10.07
2018-04-19T08:23:00.778Z,9.63
2018-04-19T08:25:26.959Z,10.63
2018-04-19T08:27:53.172Z,11.37
2018-04-19T08:30:20.827Z,11.73
2018-04-19T08:32:47.031Z,10.03
2018-04-19T08:35:13.252Z,13.40
2018-04-19T08:37:39.447Z,7.97
2018-04-19T08:40:05.627Z,9.10
2018-04-19T08:42:32.582Z,9.27
2018-04-19T08:44:58.802Z,8.47
2018-04-19T08:47:25.051Z,9.47
2018-04-19T08:49:52.011Z,7.97
2018-04-19T08:52:18.942Z,9.37
2018-04-19T08:54:45.140Z,9.87
2018-04-19T08:57:11.391Z,8.70
2018-04-19T08:59:37.596Z,7.70
2018-04-19T09:02:04.543Z,9.50
2018-04-19T09:04:31.502Z,9.73
2018-04-19T09:06:57.682Z,8.93
2018-04-19T09:09:23.884Z,9.83
2018-04-19T09:11:50.806Z,8.53
2018-04-19T09:14:17.004Z,10.10
2018-04-19T09:16:43.247Z,9.90
2018-04-19T09:19:09.446Z,9.27
2018-04-19T09:21:36.374Z,9.50
2018-04-19T09:24:02.612Z,8.43
2018-04-19T09:26:28.835Z,11.67
2018-04-19T09:28:55.018Z,13.00
2018-04-19T09:31:21.226Z,10.40
2018-04-19T09:33:47.414Z,7.70
2018-04-19T09:36:14.380Z,8.37
2018-04-19T09:38:41.340Z,8.17
2018-04-19T09:41:07.579Z,9.17
2018-04-19T09:43:33.783Z,8.40
2018-04-19T09:45:59.966Z,7.20
2018-04-19T09:48:26.887Z,6.93
2018-04-19T09:50:53.829Z,8.13
2018-04-19T09:53:21.050Z,6.20
2018-04-19T09:55:47.935Z,6.73
2018-04-19T09:58:14.138Z,5.97
2018-04-19T10:00:44.573Z,7.37
2018-04-19T10:03:16.956Z,5.10
2018-04-19T10:05:46.975Z,7.07
2018-04-19T10:08:13.944Z,6.93
2018-04-19T10:10:40.161Z,5.67
2018-04-19T10:13:07.137Z,5.07
2018-04-19T10:15:34.064Z,4.63
2018-04-19T10:18:00.267Z,5.30
2018-04-19T10:20:26.488Z,6.47
2018-04-19T10:22:52.685Z,6.37
2018-04-19T10:25:18.889Z,4.00
2018-04-19T10:27:45.117Z,5.03
2018-04-19T10:30:11.345Z,4.90
2018-04-19T10:32:37.570Z,4.37
2018-04-19T10:35:04.510Z,5.10
2018-04-19T10:37:31.460Z,3.17
2018-04-19T10:39:57.656Z,5.43
2018-04-19T10:42:23.909Z,3.27
2018-04-19T10:44:50.090Z,4.30
2018-04-19T10:47:17.030Z,6.23
2018-04-19T10:49:43.249Z,6.50
2018-04-19T10:52:09.432Z,7.13
2018-04-19T10:54:36.387Z,8.82
2018-04-19T10:57:02.577Z,3.70
2018-04-19T10:59:28.806Z,7.25
2018-04-19T11:01:55.020Z,8.10
2018-04-19T11:04:23.570Z,4.35
2018-04-19T11:06:49.957Z,4.80
2018-04-19T11:09:16.174Z,6.72
2018-04-19T11:11:42.427Z,5.03
2018-04-19T11:14:09.378Z,6.45
2018-04-19T11:16:36.341Z,5.45
2018-04-19T11:19:03.320Z,4.30
2018-04-19T11:21:29.574Z,5.40
2018-04-19T11:23:55.767Z,4.77
2018-04-19T11:26:21.955Z,5.15
2018-04-19T11:28:48.156Z,5.43
2018-04-19T11:31:15.205Z,4.67
2018-04-19T11:33:41.626Z,3.40
2018-04-19T11:36:07.839Z,12.95
2018-04-19T11:38:34.008Z,5.43
2018-04-19T11:41:00.223Z,5.75
2018-04-19T11:43:26.441Z,5.53
2018-04-19T11:45:52.673Z,7.45
2018-04-19T11:48:19.619Z,5.18
2018-04-19T11:50:46.536Z,7.40
2018-04-19T11:53:12.728Z,4.93
2018-04-19T11:55:39.664Z,4.50
2018-04-19T11:58:05.842Z,6.70
2018-04-19T12:00:39.049Z,5.97
2018-04-19T12:03:05.322Z,4.68
2018-04-19T12:05:31.513Z,5.22
2018-04-19T12:07:58.542Z,7.93
2018-04-19T12:10:24.765Z,4.95
2018-04-19T12:12:51.871Z,4.57
2018-04-19T12:15:18.146Z,4.97
2018-04-19T12:17:45.126Z,5.18
2018-04-19T12:20:12.633Z,4.12
2018-04-19T12:22:38.840Z,4.05
2018-04-19T12:25:05.906Z,3.00
2018-04-19T12:27:32.261Z,3.33
2018-04-19T12:29:58.470Z,4.43
2018-04-19T12:32:25.479Z,3.25
2018-04-19T12:34:51.748Z,3.42
2018-04-19T12:37:18.018Z,6.45
2018-04-19T12:39:44.343Z,4.28
2018-04-19T12:42:11.848Z,3.85
2018-04-19T12:44:38.109Z,4.75
2018-04-19T12:47:04.438Z,6.10
2018-04-19T12:49:30.677Z,5.93
2018-04-19T12:51:57.074Z,3.58
2018-04-19T12:54:23.362Z,3.97
2018-04-19T12:56:49.613Z,4.97
2018-04-19T12:59:16.214Z,4.87
2018-04-19T13:01:42.598Z,5.28
2018-04-19T13:04:08.819Z,4.40
2018-04-19T13:06:35.858Z,3.85
2018-04-19T13:09:02.102Z,4.28
2018-04-19T13:11:29.148Z,4.45
2018-04-19T13:13:55.499Z,5.80
2018-04-19T13:16:21.710Z,6.15
2018-04-19T13:18:47.875Z,4.32
2018-04-19T13:21:14.117Z,5.15
2018-04-19T13:23:41.544Z,3.80
2018-04-19T13:26:07.753Z,5.40
2018-04-19T13:28:34.676Z,4.87
2018-04-19T13:31:01.664Z,5.28
2018-04-19T13:33:27.944Z,5.55
2018-04-19T13:35:54.260Z,3.58
2018-04-19T13:38:21.227Z,4.57
2018-04-19T13:40:47.481Z,5.03
2018-04-19T13:43:13.771Z,3.30
2018-04-19T13:45:40.734Z,4.45
2018-04-19T13:48:06.986Z,7.60
2018-04-19T13:50:33.967Z,4.55
2018-04-19T13:53:00.415Z,5.97
2018-04-19T13:55:26.625Z,3.95
2018-04-19T13:57:52.991Z,4.10
2018-04-19T14:00:19.559Z,4.05
2018-04-19T14:02:45.771Z,3.10
2018-04-19T14:05:12.789Z,4.82
2018-04-19T14:07:39.015Z,3.85
2018-04-19T14:10:05.216Z,3.47
2018-04-19T14:12:31.611Z,3.67
2018-04-19T14:14:57.676Z,4.35
2018-04-19T14:17:24.635Z,4.43
2018-04-19T14:19:51.579Z,3.75
2018-04-19T14:22:17.800Z,3.28
2018-04-19T14:24:44.026Z,2.50
2018-04-19T14:27:11.008Z,3.47
2018-04-19T14:29:37.220Z,3.20
2018-04-19T14:32:03.459Z,3.12
2018-04-19T14:34:29.663Z,3.85
2018-04-19T14:36:55.876Z,2.53
2018-04-19T14:39:22.182Z,2.50
2018-04-19T14:41:48.449Z,3.72
2018-04-19T14:44:14.678Z,3.53
2018-04-19T14:46:40.910Z,2.35
2018-04-19T14:49:07.147Z,3.92
2018-04-19T14:51:33.366Z,2.85
2018-04-19T14:53:59.547Z,3.03
2018-04-19T14:56:25.726Z,3.03
2018-04-19T14:58:51.961Z,3.40
2018-04-19T15:01:18.183Z,4.45
2018-04-19T15:03:44.412Z,3.75
2018-04-19T15:06:10.843Z,5.35
2018-04-19T15:08:37.067Z,2.97
2018-04-19T15:11:03.285Z,3.17
2018-04-19T15:13:29.477Z,4.40
2018-04-19T15:15:56.426Z,3.62
2018-04-19T15:18:22.621Z,2.67
2018-04-19T15:20:48.833Z,4.07
2018-04-19T15:23:15.811Z,6.05
2018-04-19T15:25:42.024Z,3.20
2018-04-19T15:28:08.959Z,2.25
2018-04-19T15:30:35.143Z,3.70
2018-04-19T15:33:01.415Z,4.30
2018-04-19T15:35:27.771Z,5.80
2018-04-19T15:37:53.983Z,6.25
2018-04-19T15:40:20.184Z,5.10
2018-04-19T15:42:46.442Z,4.30
2018-04-19T15:45:12.709Z,3.70
2018-04-19T15:47:38.930Z,2.60
2018-04-19T15:50:05.197Z,4.55
2018-04-19T15:52:31.436Z,3.10
2018-04-19T15:54:57.687Z,2.30
2018-04-19T15:57:23.888Z,2.40
2018-04-19T15:59:50.135Z,2.70
2018-04-19T16:02:16.414Z,3.08
2018-04-19T16:04:42.663Z,3.20
2018-04-19T16:07:08.907Z,2.87
2018-04-19T16:09:35.078Z,3.65
2018-04-19T16:12:02.122Z,4.87
2018-04-19T16:14:28.329Z,2.75
2018-04-19T16:16:54.580Z,2.72
2018-04-19T16:19:20.826Z,4.20
2018-04-19T16:21:48.534Z,3.42
2018-04-19T16:24:15.517Z,4.00
2018-04-19T16:26:41.779Z,8.88
2018-04-19T16:29:08.031Z,3.95
2018-04-19T16:31:34.307Z,3.47
2018-04-19T16:34:01.278Z,5.68
2018-04-19T16:36:27.539Z,4.10
2018-04-19T16:38:53.794Z,3.00
2018-04-19T16:41:20.021Z,3.05
2018-04-19T16:43:46.244Z,3.17
2018-04-19T16:46:12.508Z,3.30
2018-04-19T16:48:38.790Z,3.10
2018-04-19T16:51:04.997Z,3.53
2018-04-19T16:53:31.224Z,3.70
2018-04-19T16:55:57.549Z,4.12
2018-04-19T16:58:23.810Z,3.92
2018-04-19T17:00:50.133Z,2.30
2018-04-19T17:03:16.356Z,2.50
2018-04-19T17:05:43.427Z,3.28
2018-04-19T17:08:09.638Z,3.40
2018-04-19T17:10:36.822Z,3.05
2018-04-19T17:13:03.785Z,2.28
2018-04-19T17:15:30.144Z,2.78
2018-04-19T17:17:56.433Z,2.97
2018-04-19T17:20:22.664Z,3.33
2018-04-19T17:22:48.958Z,4.62
2018-04-19T17:25:15.186Z,3.70
2018-04-19T17:27:42.275Z,2.95
2018-04-19T17:30:08.540Z,2.23
2018-04-19T17:32:35.767Z,3.00
2018-04-19T17:35:02.045Z,4.22
2018-04-19T17:37:28.680Z,3.75
2018-04-19T17:39:54.904Z,2.77
2018-04-19T17:42:21.104Z,3.50
2018-04-19T17:44:48.051Z,4.33
2018-04-19T17:47:14.256Z,3.40
2018-04-19T17:49:40.436Z,3.33
2018-04-19T17:52:06.649Z,3.87
2018-04-19T17:54:32.847Z,5.07
2018-04-19T17:56:59.063Z,4.03
2018-04-19T17:59:25.270Z,3.73
2018-04-19T18:01:51.455Z,3.53
2018-04-19T18:04:17.642Z,3.93
2018-04-19T18:06:43.850Z,3.17
2018-04-19T18:09:10.929Z,4.77
2018-04-19T18:11:37.183Z,3.27
2018-04-19T18:14:03.839Z,5.73
2018-04-19T18:16:30.243Z,3.93
2018-04-19T18:18:56.611Z,6.80
2018-04-19T18:21:23.139Z,5.33
2018-04-19T18:23:49.545Z,4.20
2018-04-19T18:26:15.846Z,6.43
2018-04-19T18:28:42.216Z,3.80
2018-04-19T18:31:09.477Z,3.50
2018-04-19T18:33:35.812Z,4.40
2018-04-19T18:36:02.266Z,3.60
2018-04-19T18:38:28.750Z,3.97
2018-04-19T18:40:55.158Z,4.10
2018-04-19T18:43:22.284Z,3.03
2018-04-19T18:45:48.841Z,2.80
2018-04-19T18:48:15.445Z,3.17
2018-04-19T18:50:42.016Z,3.27
2018-04-19T18:53:08.459Z,2.67
2018-04-19T18:55:34.673Z,3.53
2018-04-19T18:58:01.878Z,4.03
2018-04-19T19:00:28.537Z,3.63
2018-04-19T19:02:54.820Z,4.53
2018-04-19T19:05:21.193Z,4.20
2018-04-19T19:07:48.291Z,4.40
2018-04-19T19:10:14.565Z,9.23
2018-04-19T19:12:40.777Z,3.33
2018-04-19T19:18:31.421Z,3.67
2018-04-19T19:20:59.422Z,3.63
2018-04-19T19:23:25.659Z,4.23
2018-04-19T19:25:51.936Z,3.20
2018-04-19T19:28:18.235Z,5.03
2018-04-19T19:30:45.222Z,5.60
2018-04-19T19:33:14.195Z,5.07
2018-04-19T19:35:40.666Z,5.73
2018-04-19T19:38:07.538Z,4.60
2018-04-19T19:40:33.792Z,4.77
2018-04-19T19:43:00.026Z,4.57
2018-04-19T19:45:26.422Z,3.57
2018-04-19T19:47:52.719Z,3.30
2018-04-19T19:50:19.002Z,5.53
2018-04-19T19:52:45.351Z,3.90
2018-04-19T19:55:11.580Z,4.10
2018-04-19T19:57:38.520Z,5.50
2018-04-19T20:00:04.699Z,4.40
2018-04-19T20:02:30.904Z,3.63
2018-04-19T20:04:57.227Z,4.80
2018-04-19T20:07:23.457Z,3.83
2018-04-19T20:09:49.723Z,7.00
2018-04-19T20:12:16.192Z,3.97
2018-04-19T20:14:43.184Z,3.83
2018-04-19T20:17:09.418Z,6.77
2018-04-19T20:19:35.685Z,5.63
2018-04-19T20:22:01.940Z,3.93
2018-04-19T20:24:28.169Z,4.43
2018-04-19T20:26:54.768Z,5.33
2018-04-19T20:29:20.956Z,5.83
2018-04-19T20:31:47.148Z,7.00
2018-04-19T20:34:14.103Z,4.00
2018-04-19T20:36:40.316Z,5.67
2018-04-19T20:39:06.487Z,6.00
2018-04-19T20:41:33.611Z,4.60
2018-04-19T20:43:59.760Z,9.67
2018-04-19T20:46:26.702Z,6.90
2018-04-19T20:48:52.878Z,5.90
2018-04-19T20:51:19.147Z,3.50
2018-04-19T20:53:45.435Z,5.50
2018-04-19T20:56:12.443Z,5.07
2018-04-19T20:58:38.659Z,5.17
2018-04-19T21:01:04.841Z,4.27
2018-04-19T21:03:31.075Z,4.80
2018-04-19T21:05:57.325Z,5.37
2018-04-19T21:08:23.567Z,6.63
2018-04-19T21:10:50.509Z,4.17
2018-04-19T21:13:16.784Z,5.07
2018-04-19T21:15:43.024Z,3.70
2018-04-19T21:18:09.210Z,5.33
2018-04-19T21:20:35.427Z,8.43
2018-04-19T21:23:02.502Z,4.27
2018-04-19T21:25:28.733Z,5.60
2018-04-19T21:27:54.924Z,6.30
2018-04-19T21:30:21.140Z,4.17
2018-04-19T21:32:48.067Z,4.20
2018-04-19T21:35:14.353Z,5.50
2018-04-19T21:37:40.535Z,6.63
2018-04-19T21:40:06.701Z,8.30
2018-04-19T21:42:32.917Z,5.37
2018-04-19T21:44:59.863Z,7.83
2018-04-19T21:47:26.076Z,7.27
2018-04-19T21:49:52.288Z,6.97
2018-04-19T21:52:18.483Z,9.37
2018-04-19T21:54:44.699Z,11.77
2018-04-19T21:57:11.585Z,7.40
2018-04-19T21:59:37.778Z,5.53
2018-04-19T22:02:04.702Z,6.63
2018-04-19T22:04:32.483Z,7.80
2018-04-19T22:06:58.710Z,5.53
2018-04-19T22:09:24.962Z,6.90
2018-04-19T22:11:51.183Z,5.67
2018-04-19T22:14:24.459Z,8.20
2018-04-19T22:16:50.658Z,7.63
2018-04-19T22:19:17.606Z,8.23
2018-04-19T22:21:43.851Z,5.93
2018-04-19T22:24:11.376Z,6.50
2018-04-19T22:26:37.557Z,8.20
2018-04-19T22:29:03.777Z,6.23
2018-04-19T22:31:30.032Z,5.20
2018-04-19T22:33:56.214Z,6.60
2018-04-19T22:36:22.463Z,5.30
2018-04-19T22:38:48.645Z,6.47
2018-04-19T22:41:14.848Z,5.83
2018-04-19T22:43:41.044Z,4.80
2018-04-19T22:46:07.255Z,5.83
2018-04-19T22:48:33.506Z,7.83
2018-04-19T22:50:59.718Z,7.53
2018-04-19T22:53:25.920Z,5.27
2018-04-19T22:55:52.877Z,5.80
2018-04-19T22:58:19.815Z,4.63
2018-04-19T23:00:46.027Z,4.37
2018-04-19T23:03:12.325Z,7.50
2018-04-19T23:05:38.561Z,5.20
2018-04-19T23:08:05.522Z,5.53
2018-04-19T23:10:31.694Z,5.90
2018-04-19T23:12:57.883Z,4.70
2018-04-19T23:15:24.205Z,4.33
2018-04-19T23:17:50.419Z,4.70
2018-04-19T23:20:16.591Z,4.03
2018-04-19T23:22:42.825Z,4.27
2018-04-19T23:25:10.539Z,4.63
2018-04-19T23:27:36.706Z,5.07
2018-04-19T23:30:02.971Z,4.57
2018-04-19T23:32:29.935Z,4.47
2018-04-19T23:34:56.159Z,7.03
2018-04-19T23:37:22.426Z,5.83
2018-04-19T23:39:48.622Z,8.53
2018-04-19T23:42:14.851Z,5.83
2018-04-19T23:44:41.054Z,5.50
2018-04-19T23:47:08.006Z,5.97
2018-04-19T23:49:34.223Z,6.87
2018-04-19T23:52:00.414Z,7.13
2018-04-19T23:54:27.369Z,7.67
2018-04-19T23:56:54.284Z,5.47
2018-04-19T23:59:20.482Z,5.20
